sensor_id;sensor_type;location;lat;lon;timestamp;temperature;humidity
68354;DHT22;55274;43.060;25.618;2022-08-03T00:01:51;21.50;69.50
68354;DHT22;55274;43.060;25.618;2022-08-03T00:04:17;21.40;69.60
68354;DHT22;55274;43.060;25.618;2022-08-03T00:06:43;21.40;69.90
68354;DHT22;55274;43.060;25.618;2022-08-03T00:09:09;21.40;70.00
68354;DHT22;55274;43.060;25.618;2022-08-03T00:11:35;21.30;69.70
68354;DHT22;55274;43.060;25.618;2022-08-03T00:14:02;21.30;69.70
68354;DHT22;55274;43.060;25.618;2022-08-03T00:16:28;21.20;69.70
68354;DHT22;55274;43.060;25.618;2022-08-03T00:18:53;21.20;69.90
68354;DHT22;55274;43.060;25.618;2022-08-03T00:21:19;21.20;69.90
68354;DHT22;55274;43.060;25.618;2022-08-03T00:23:45;21.10;70.30
68354;DHT22;55274;43.060;25.618;2022-08-03T00:26:11;21.10;70.50
68354;DHT22;55274;43.060;25.618;2022-08-03T00:28:36;21.10;70.40
68354;DHT22;55274;43.060;25.618;2022-08-03T00:31:02;21.10;70.80
68354;DHT22;55274;43.060;25.618;2022-08-03T00:33:28;21.00;70.90
68354;DHT22;55274;43.060;25.618;2022-08-03T00:35:54;20.90;70.80
68354;DHT22;55274;43.060;25.618;2022-08-03T00:38:19;20.90;70.80
68354;DHT22;55274;43.060;25.618;2022-08-03T00:40:46;21.00;70.70
68354;DHT22;55274;43.060;25.618;2022-08-03T00:43:12;21.00;70.80
68354;DHT22;55274;43.060;25.618;2022-08-03T00:45:39;21.00;70.90
68354;DHT22;55274;43.060;25.618;2022-08-03T00:48:07;21.00;71.00
68354;DHT22;55274;43.060;25.618;2022-08-03T00:50:38;20.90;71.30
68354;DHT22;55274;43.060;25.618;2022-08-03T00:53:05;20.90;71.50
68354;DHT22;55274;43.060;25.618;2022-08-03T00:55:32;20.90;71.50
68354;DHT22;55274;43.060;25.618;2022-08-03T00:57:58;20.90;71.50
68354;DHT22;55274;43.060;25.618;2022-08-03T01:00:26;20.90;71.70
68354;DHT22;55274;43.060;25.618;2022-08-03T01:02:52;20.90;71.50
68354;DHT22;55274;43.060;25.618;2022-08-03T01:05:20;20.80;71.90
68354;DHT22;55274;43.060;25.618;2022-08-03T01:10:41;20.70;72.60
68354;DHT22;55274;43.060;25.618;2022-08-03T01:16:14;20.50;73.00
68354;DHT22;55274;43.060;25.618;2022-08-03T01:21:30;20.50;72.80
68354;DHT22;55274;43.060;25.618;2022-08-03T01:27:18;20.60;73.30
68354;DHT22;55274;43.060;25.618;2022-08-03T01:30:07;20.60;73.30
68354;DHT22;55274;43.060;25.618;2022-08-03T01:32:58;20.60;73.00
68354;DHT22;55274;43.060;25.618;2022-08-03T01:35:31;20.60;72.80
68354;DHT22;55274;43.060;25.618;2022-08-03T01:38:03;20.60;72.80
68354;DHT22;55274;43.060;25.618;2022-08-03T01:40:32;20.50;73.10
68354;DHT22;55274;43.060;25.618;2022-08-03T01:43:01;20.60;73.20
68354;DHT22;55274;43.060;25.618;2022-08-03T01:45:28;20.60;73.40
68354;DHT22;55274;43.060;25.618;2022-08-03T01:47:55;20.50;73.40
68354;DHT22;55274;43.060;25.618;2022-08-03T01:50:26;20.40;73.60
68354;DHT22;55274;43.060;25.618;2022-08-03T01:52:53;20.40;73.60
68354;DHT22;55274;43.060;25.618;2022-08-03T01:55:21;20.40;73.50
68354;DHT22;55274;43.060;25.618;2022-08-03T01:57:49;20.40;73.60
68354;DHT22;55274;43.060;25.618;2022-08-03T02:00:16;20.40;73.90
68354;DHT22;55274;43.060;25.618;2022-08-03T02:02:43;20.30;73.90
68354;DHT22;55274;43.060;25.618;2022-08-03T02:05:11;20.30;74.00
68354;DHT22;55274;43.060;25.618;2022-08-03T02:07:40;20.30;74.20
68354;DHT22;55274;43.060;25.618;2022-08-03T02:10:08;20.20;74.20
68354;DHT22;55274;43.060;25.618;2022-08-03T02:12:36;20.20;74.30
68354;DHT22;55274;43.060;25.618;2022-08-03T02:15:03;20.20;74.20
68354;DHT22;55274;43.060;25.618;2022-08-03T02:17:31;20.20;74.30
68354;DHT22;55274;43.060;25.618;2022-08-03T02:19:59;20.20;74.30
68354;DHT22;55274;43.060;25.618;2022-08-03T02:22:27;20.20;74.20
68354;DHT22;55274;43.060;25.618;2022-08-03T02:24:54;20.20;74.40
68354;DHT22;55274;43.060;25.618;2022-08-03T02:27:22;20.10;74.70
68354;DHT22;55274;43.060;25.618;2022-08-03T02:29:54;20.20;74.60
68354;DHT22;55274;43.060;25.618;2022-08-03T02:32:30;20.20;74.50
68354;DHT22;55274;43.060;25.618;2022-08-03T02:34:57;20.20;74.80
68354;DHT22;55274;43.060;25.618;2022-08-03T02:37:27;20.20;74.80
68354;DHT22;55274;43.060;25.618;2022-08-03T02:40:00;20.20;74.40
68354;DHT22;55274;43.060;25.618;2022-08-03T02:42:27;20.10;74.70
68354;DHT22;55274;43.060;25.618;2022-08-03T02:44:56;20.10;74.80
68354;DHT22;55274;43.060;25.618;2022-08-03T02:47:25;20.10;74.80
68354;DHT22;55274;43.060;25.618;2022-08-03T02:49:53;20.10;74.90
68354;DHT22;55274;43.060;25.618;2022-08-03T02:52:22;20.10;75.10
68354;DHT22;55274;43.060;25.618;2022-08-03T02:54:51;20.00;74.90
68354;DHT22;55274;43.060;25.618;2022-08-03T02:57:19;20.00;75.10
68354;DHT22;55274;43.060;25.618;2022-08-03T02:59:45;20.00;75.20
68354;DHT22;55274;43.060;25.618;2022-08-03T03:02:13;20.00;75.30
68354;DHT22;55274;43.060;25.618;2022-08-03T03:04:41;20.10;75.30
68354;DHT22;55274;43.060;25.618;2022-08-03T03:07:09;20.10;75.40
68354;DHT22;55274;43.060;25.618;2022-08-03T03:09:35;20.10;75.60
68354;DHT22;55274;43.060;25.618;2022-08-03T03:12:02;20.10;75.60
68354;DHT22;55274;43.060;25.618;2022-08-03T03:14:28;20.10;75.60
68354;DHT22;55274;43.060;25.618;2022-08-03T03:16:56;20.10;75.40
68354;DHT22;55274;43.060;25.618;2022-08-03T03:19:22;20.10;75.10
68354;DHT22;55274;43.060;25.618;2022-08-03T03:21:49;20.20;75.20
68354;DHT22;55274;43.060;25.618;2022-08-03T03:24:16;20.10;75.20
68354;DHT22;55274;43.060;25.618;2022-08-03T03:26:42;20.20;75.10
68354;DHT22;55274;43.060;25.618;2022-08-03T03:29:09;20.10;75.40
68354;DHT22;55274;43.060;25.618;2022-08-03T03:31:35;20.10;75.30
68354;DHT22;55274;43.060;25.618;2022-08-03T03:34:01;20.00;75.50
68354;DHT22;55274;43.060;25.618;2022-08-03T03:36:27;20.00;75.70
68354;DHT22;55274;43.060;25.618;2022-08-03T03:38:53;20.10;75.70
68354;DHT22;55274;43.060;25.618;2022-08-03T03:41:19;20.20;75.60
68354;DHT22;55274;43.060;25.618;2022-08-03T03:43:45;20.20;75.50
68354;DHT22;55274;43.060;25.618;2022-08-03T03:46:13;20.30;75.20
68354;DHT22;55274;43.060;25.618;2022-08-03T03:48:39;20.30;75.60
68354;DHT22;55274;43.060;25.618;2022-08-03T03:51:06;20.30;75.40
68354;DHT22;55274;43.060;25.618;2022-08-03T03:53:32;20.40;75.30
68354;DHT22;55274;43.060;25.618;2022-08-03T03:55:58;20.50;74.90
68354;DHT22;55274;43.060;25.618;2022-08-03T03:58:23;20.70;74.40
68354;DHT22;55274;43.060;25.618;2022-08-03T04:00:50;20.80;73.70
68354;DHT22;55274;43.060;25.618;2022-08-03T04:03:15;20.90;73.70
68354;DHT22;55274;43.060;25.618;2022-08-03T04:05:42;20.90;73.40
68354;DHT22;55274;43.060;25.618;2022-08-03T04:08:26;21.00;73.10
68354;DHT22;55274;43.060;25.618;2022-08-03T04:11:19;21.00;72.60
68354;DHT22;55274;43.060;25.618;2022-08-03T04:13:59;21.10;72.30
68354;DHT22;55274;43.060;25.618;2022-08-03T04:16:31;21.10;72.10
68354;DHT22;55274;43.060;25.618;2022-08-03T04:19:08;21.00;72.00
68354;DHT22;55274;43.060;25.618;2022-08-03T04:21:37;21.10;73.10
68354;DHT22;55274;43.060;25.618;2022-08-03T04:24:08;21.10;72.80
68354;DHT22;55274;43.060;25.618;2022-08-03T04:26:38;21.20;73.50
68354;DHT22;55274;43.060;25.618;2022-08-03T04:29:05;21.30;73.70
68354;DHT22;55274;43.060;25.618;2022-08-03T04:31:31;21.60;72.60
68354;DHT22;55274;43.060;25.618;2022-08-03T04:33:58;21.80;71.90
68354;DHT22;55274;43.060;25.618;2022-08-03T04:36:26;21.80;71.60
68354;DHT22;55274;43.060;25.618;2022-08-03T04:39:04;21.90;71.40
68354;DHT22;55274;43.060;25.618;2022-08-03T04:41:32;22.30;70.70
68354;DHT22;55274;43.060;25.618;2022-08-03T04:44:00;22.80;69.50
68354;DHT22;55274;43.060;25.618;2022-08-03T04:46:30;23.30;67.30
68354;DHT22;55274;43.060;25.618;2022-08-03T04:48:57;23.50;66.30
68354;DHT22;55274;43.060;25.618;2022-08-03T04:51:24;23.60;66.30
68354;DHT22;55274;43.060;25.618;2022-08-03T04:53:50;23.70;65.30
68354;DHT22;55274;43.060;25.618;2022-08-03T04:56:16;23.80;65.40
68354;DHT22;55274;43.060;25.618;2022-08-03T04:58:42;24.40;63.90
68354;DHT22;55274;43.060;25.618;2022-08-03T05:01:08;25.30;61.20
68354;DHT22;55274;43.060;25.618;2022-08-03T05:03:34;25.20;60.00
68354;DHT22;55274;43.060;25.618;2022-08-03T05:06:00;25.20;60.10
68354;DHT22;55274;43.060;25.618;2022-08-03T05:08:26;25.20;60.00
68354;DHT22;55274;43.060;25.618;2022-08-03T05:10:51;25.20;60.20
68354;DHT22;55274;43.060;25.618;2022-08-03T05:13:17;25.20;60.00
68354;DHT22;55274;43.060;25.618;2022-08-03T05:15:43;25.20;59.90
68354;DHT22;55274;43.060;25.618;2022-08-03T05:18:09;25.90;58.30
68354;DHT22;55274;43.060;25.618;2022-08-03T05:20:35;26.60;56.80
68354;DHT22;55274;43.060;25.618;2022-08-03T05:23:00;27.10;55.70
68354;DHT22;55274;43.060;25.618;2022-08-03T05:25:28;27.70;54.90
68354;DHT22;55274;43.060;25.618;2022-08-03T05:27:54;28.50;52.50
68354;DHT22;55274;43.060;25.618;2022-08-03T05:30:21;29.00;51.00
68354;DHT22;55274;43.060;25.618;2022-08-03T05:32:46;29.10;50.50
68354;DHT22;55274;43.060;25.618;2022-08-03T05:35:12;29.60;49.00
68354;DHT22;55274;43.060;25.618;2022-08-03T05:37:38;30.00;48.00
68354;DHT22;55274;43.060;25.618;2022-08-03T05:40:04;30.00;47.80
68354;DHT22;55274;43.060;25.618;2022-08-03T05:42:30;30.40;46.90
68354;DHT22;55274;43.060;25.618;2022-08-03T05:44:56;31.00;45.80
68354;DHT22;55274;43.060;25.618;2022-08-03T05:47:22;31.30;44.70
68354;DHT22;55274;43.060;25.618;2022-08-03T05:49:48;31.20;44.30
68354;DHT22;55274;43.060;25.618;2022-08-03T05:52:13;31.60;43.40
68354;DHT22;55274;43.060;25.618;2022-08-03T05:54:39;32.00;43.20
68354;DHT22;55274;43.060;25.618;2022-08-03T05:57:05;32.40;42.30
68354;DHT22;55274;43.060;25.618;2022-08-03T05:59:31;32.60;41.00
68354;DHT22;55274;43.060;25.618;2022-08-03T06:01:57;32.50;41.40
68354;DHT22;55274;43.060;25.618;2022-08-03T06:04:23;32.60;41.00
68354;DHT22;55274;43.060;25.618;2022-08-03T06:06:49;32.60;40.60
68354;DHT22;55274;43.060;25.618;2022-08-03T06:09:16;32.40;41.10
68354;DHT22;55274;43.060;25.618;2022-08-03T06:11:42;32.00;42.20
68354;DHT22;55274;43.060;25.618;2022-08-03T06:14:08;32.00;42.10
68354;DHT22;55274;43.060;25.618;2022-08-03T06:16:34;31.70;42.20
68354;DHT22;55274;43.060;25.618;2022-08-03T06:19:00;31.10;43.70
68354;DHT22;55274;43.060;25.618;2022-08-03T06:21:25;30.90;43.50
68354;DHT22;55274;43.060;25.618;2022-08-03T06:23:51;31.00;43.90
68354;DHT22;55274;43.060;25.618;2022-08-03T06:26:18;31.00;44.70
68354;DHT22;55274;43.060;25.618;2022-08-03T06:28:44;30.80;43.80
68354;DHT22;55274;43.060;25.618;2022-08-03T06:31:10;30.60;44.60
68354;DHT22;55274;43.060;25.618;2022-08-03T06:33:36;30.40;44.00
68354;DHT22;55274;43.060;25.618;2022-08-03T06:36:02;30.10;46.10
68354;DHT22;55274;43.060;25.618;2022-08-03T06:38:28;30.00;46.50
68354;DHT22;55274;43.060;25.618;2022-08-03T06:40:54;29.80;41.60
68354;DHT22;55274;43.060;25.618;2022-08-03T06:43:20;29.40;39.10
68354;DHT22;55274;43.060;25.618;2022-08-03T06:45:45;29.40;38.10
68354;DHT22;55274;43.060;25.618;2022-08-03T06:48:12;29.40;38.30
68354;DHT22;55274;43.060;25.618;2022-08-03T06:50:39;29.70;36.90
68354;DHT22;55274;43.060;25.618;2022-08-03T06:53:06;29.60;37.10
68354;DHT22;55274;43.060;25.618;2022-08-03T06:55:36;29.50;37.20
68354;DHT22;55274;43.060;25.618;2022-08-03T06:58:02;29.70;37.30
68354;DHT22;55274;43.060;25.618;2022-08-03T07:00:27;29.80;36.40
68354;DHT22;55274;43.060;25.618;2022-08-03T07:02:53;29.80;36.10
68354;DHT22;55274;43.060;25.618;2022-08-03T07:05:19;30.10;36.50
68354;DHT22;55274;43.060;25.618;2022-08-03T07:07:45;30.10;35.80
68354;DHT22;55274;43.060;25.618;2022-08-03T07:10:11;30.00;36.50
68354;DHT22;55274;43.060;25.618;2022-08-03T07:12:37;30.10;35.80
68354;DHT22;55274;43.060;25.618;2022-08-03T07:15:05;30.60;35.70
68354;DHT22;55274;43.060;25.618;2022-08-03T07:17:34;31.00;35.20
68354;DHT22;55274;43.060;25.618;2022-08-03T07:20:02;31.10;34.80
68354;DHT22;55274;43.060;25.618;2022-08-03T07:22:28;31.00;35.10
68354;DHT22;55274;43.060;25.618;2022-08-03T07:24:54;31.40;34.50
68354;DHT22;55274;43.060;25.618;2022-08-03T07:27:19;31.20;34.00
68354;DHT22;55274;43.060;25.618;2022-08-03T07:29:45;31.10;34.60
68354;DHT22;55274;43.060;25.618;2022-08-03T07:32:11;31.20;34.20
68354;DHT22;55274;43.060;25.618;2022-08-03T07:34:37;31.20;34.30
68354;DHT22;55274;43.060;25.618;2022-08-03T07:37:03;31.30;34.20
68354;DHT22;55274;43.060;25.618;2022-08-03T07:39:28;31.30;34.20
68354;DHT22;55274;43.060;25.618;2022-08-03T07:41:54;31.20;34.50
68354;DHT22;55274;43.060;25.618;2022-08-03T07:44:20;31.20;34.50
68354;DHT22;55274;43.060;25.618;2022-08-03T07:46:46;31.80;33.70
68354;DHT22;55274;43.060;25.618;2022-08-03T07:49:12;31.90;33.70
68354;DHT22;55274;43.060;25.618;2022-08-03T07:51:38;32.20;33.40
68354;DHT22;55274;43.060;25.618;2022-08-03T07:54:04;32.60;32.60
68354;DHT22;55274;43.060;25.618;2022-08-03T07:56:31;32.20;33.30
68354;DHT22;55274;43.060;25.618;2022-08-03T07:58:56;31.90;34.30
68354;DHT22;55274;43.060;25.618;2022-08-03T08:01:22;32.00;33.80
68354;DHT22;55274;43.060;25.618;2022-08-03T08:03:49;32.10;33.70
68354;DHT22;55274;43.060;25.618;2022-08-03T08:06:16;32.60;32.40
68354;DHT22;55274;43.060;25.618;2022-08-03T08:08:42;32.90;31.90
68354;DHT22;55274;43.060;25.618;2022-08-03T08:11:08;32.90;32.30
68354;DHT22;55274;43.060;25.618;2022-08-03T08:13:34;32.60;32.90
68354;DHT22;55274;43.060;25.618;2022-08-03T08:16:02;32.90;32.10
68354;DHT22;55274;43.060;25.618;2022-08-03T08:18:28;33.40;31.20
68354;DHT22;55274;43.060;25.618;2022-08-03T08:20:57;33.70;30.80
68354;DHT22;55274;43.060;25.618;2022-08-03T08:23:23;34.20;30.20
68354;DHT22;55274;43.060;25.618;2022-08-03T08:25:52;34.40;29.50
68354;DHT22;55274;43.060;25.618;2022-08-03T08:28:20;34.40;30.40
68354;DHT22;55274;43.060;25.618;2022-08-03T08:30:47;34.70;29.40
68354;DHT22;55274;43.060;25.618;2022-08-03T08:33:13;34.90;29.40
68354;DHT22;55274;43.060;25.618;2022-08-03T08:35:39;34.70;29.40
68354;DHT22;55274;43.060;25.618;2022-08-03T08:38:05;34.30;30.40
68354;DHT22;55274;43.060;25.618;2022-08-03T08:40:31;34.50;29.90
68354;DHT22;55274;43.060;25.618;2022-08-03T08:42:57;34.50;30.10
68354;DHT22;55274;43.060;25.618;2022-08-03T08:45:23;34.80;29.00
68354;DHT22;55274;43.060;25.618;2022-08-03T08:47:49;34.70;29.10
68354;DHT22;55274;43.060;25.618;2022-08-03T08:50:21;35.00;29.90
68354;DHT22;55274;43.060;25.618;2022-08-03T08:52:48;35.60;28.60
68354;DHT22;55274;43.060;25.618;2022-08-03T08:55:20;36.00;27.70
68354;DHT22;55274;43.060;25.618;2022-08-03T08:57:53;36.20;27.10
68354;DHT22;55274;43.060;25.618;2022-08-03T09:00:20;35.20;28.50
68354;DHT22;55274;43.060;25.618;2022-08-03T09:02:46;35.20;28.40
68354;DHT22;55274;43.060;25.618;2022-08-03T09:05:13;35.60;27.70
68354;DHT22;55274;43.060;25.618;2022-08-03T09:07:40;36.00;27.10
68354;DHT22;55274;43.060;25.618;2022-08-03T09:10:07;36.00;27.30
68354;DHT22;55274;43.060;25.618;2022-08-03T09:12:50;35.80;27.30
68354;DHT22;55274;43.060;25.618;2022-08-03T09:15:26;36.30;26.70
68354;DHT22;55274;43.060;25.618;2022-08-03T09:17:56;36.60;26.10
68354;DHT22;55274;43.060;25.618;2022-08-03T09:20:23;36.60;25.90
68354;DHT22;55274;43.060;25.618;2022-08-03T09:22:57;36.90;25.30
68354;DHT22;55274;43.060;25.618;2022-08-03T09:25:37;36.90;25.20
68354;DHT22;55274;43.060;25.618;2022-08-03T09:30:31;36.10;27.00
68354;DHT22;55274;43.060;25.618;2022-08-03T09:33:01;35.80;26.80
68354;DHT22;55274;43.060;25.618;2022-08-03T09:35:27;34.90;28.00
68354;DHT22;55274;43.060;25.618;2022-08-03T09:38:23;35.80;28.00
68354;DHT22;55274;43.060;25.618;2022-08-03T09:40:51;36.80;26.10
68354;DHT22;55274;43.060;25.618;2022-08-03T09:43:18;37.30;24.30
68354;DHT22;55274;43.060;25.618;2022-08-03T09:45:44;37.50;24.80
68354;DHT22;55274;43.060;25.618;2022-08-03T09:48:26;37.60;24.50
68354;DHT22;55274;43.060;25.618;2022-08-03T09:50:56;37.20;24.90
68354;DHT22;55274;43.060;25.618;2022-08-03T09:53:23;36.80;25.60
68354;DHT22;55274;43.060;25.618;2022-08-03T09:55:57;36.70;25.20
68354;DHT22;55274;43.060;25.618;2022-08-03T09:58:24;36.30;26.30
68354;DHT22;55274;43.060;25.618;2022-08-03T10:01:04;35.80;26.60
68354;DHT22;55274;43.060;25.618;2022-08-03T10:03:34;34.80;28.10
68354;DHT22;55274;43.060;25.618;2022-08-03T10:06:21;34.40;28.80
68354;DHT22;55274;43.060;25.618;2022-08-03T10:09:09;34.00;29.80
68354;DHT22;55274;43.060;25.618;2022-08-03T10:11:37;34.60;28.40
68354;DHT22;55274;43.060;25.618;2022-08-03T10:14:04;35.40;28.20
68354;DHT22;55274;43.060;25.618;2022-08-03T10:16:39;35.80;26.30
68354;DHT22;55274;43.060;25.618;2022-08-03T10:19:07;36.20;26.30
68354;DHT22;55274;43.060;25.618;2022-08-03T10:21:36;36.20;26.00
68354;DHT22;55274;43.060;25.618;2022-08-03T10:24:04;36.10;26.20
68354;DHT22;55274;43.060;25.618;2022-08-03T10:26:38;36.20;26.40
68354;DHT22;55274;43.060;25.618;2022-08-03T10:29:10;36.10;26.20
68354;DHT22;55274;43.060;25.618;2022-08-03T10:31:44;36.60;26.10
68354;DHT22;55274;43.060;25.618;2022-08-03T10:34:18;36.70;25.80
68354;DHT22;55274;43.060;25.618;2022-08-03T10:36:48;36.10;26.20
68354;DHT22;55274;43.060;25.618;2022-08-03T10:39:18;35.60;26.70
68354;DHT22;55274;43.060;25.618;2022-08-03T10:41:44;36.20;25.90
68354;DHT22;55274;43.060;25.618;2022-08-03T10:44:18;36.40;25.20
68354;DHT22;55274;43.060;25.618;2022-08-03T10:46:47;36.60;25.10
68354;DHT22;55274;43.060;25.618;2022-08-03T10:49:18;36.90;24.40
68354;DHT22;55274;43.060;25.618;2022-08-03T10:51:45;36.70;24.30
68354;DHT22;55274;43.060;25.618;2022-08-03T10:57:01;36.30;25.10
68354;DHT22;55274;43.060;25.618;2022-08-03T11:02:13;35.00;27.70
68354;DHT22;55274;43.060;25.618;2022-08-03T11:04:40;34.70;27.50
68354;DHT22;55274;43.060;25.618;2022-08-03T11:07:19;34.70;27.60
68354;DHT22;55274;43.060;25.618;2022-08-03T11:09:48;34.70;28.20
68354;DHT22;55274;43.060;25.618;2022-08-03T11:12:25;34.60;27.60
68354;DHT22;55274;43.060;25.618;2022-08-03T11:14:52;34.60;27.40
68354;DHT22;55274;43.060;25.618;2022-08-03T11:17:19;34.30;27.30
68354;DHT22;55274;43.060;25.618;2022-08-03T11:19:49;34.80;27.20
68354;DHT22;55274;43.060;25.618;2022-08-03T11:22:16;35.60;25.70
68354;DHT22;55274;43.060;25.618;2022-08-03T11:27:18;36.20;24.80
68354;DHT22;55274;43.060;25.618;2022-08-03T11:40:47;34.60;27.40
68354;DHT22;55274;43.060;25.618;2022-08-03T11:48:43;34.80;28.00
68354;DHT22;55274;43.060;25.618;2022-08-03T11:51:22;34.90;27.20
68354;DHT22;55274;43.060;25.618;2022-08-03T11:56:18;35.50;26.40
68354;DHT22;55274;43.060;25.618;2022-08-03T11:58:49;35.80;25.80
68354;DHT22;55274;43.060;25.618;2022-08-03T12:01:18;35.70;25.50
68354;DHT22;55274;43.060;25.618;2022-08-03T12:03:44;35.80;24.90
68354;DHT22;55274;43.060;25.618;2022-08-03T12:06:12;36.20;24.80
68354;DHT22;55274;43.060;25.618;2022-08-03T12:08:40;36.70;24.10
68354;DHT22;55274;43.060;25.618;2022-08-03T12:11:08;37.00;23.90
68354;DHT22;55274;43.060;25.618;2022-08-03T12:13:46;36.90;24.10
68354;DHT22;55274;43.060;25.618;2022-08-03T12:16:23;37.00;24.30
68354;DHT22;55274;43.060;25.618;2022-08-03T12:19:00;36.50;24.20
68354;DHT22;55274;43.060;25.618;2022-08-03T12:21:27;35.80;25.30
68354;DHT22;55274;43.060;25.618;2022-08-03T12:23:57;35.70;25.20
68354;DHT22;55274;43.060;25.618;2022-08-03T12:26:24;35.50;25.50
68354;DHT22;55274;43.060;25.618;2022-08-03T12:28:50;35.10;26.50
68354;DHT22;55274;43.060;25.618;2022-08-03T12:31:16;34.80;26.10
68354;DHT22;55274;43.060;25.618;2022-08-03T12:34:01;34.60;26.30
68354;DHT22;55274;43.060;25.618;2022-08-03T12:36:33;34.60;26.60
68354;DHT22;55274;43.060;25.618;2022-08-03T12:39:04;35.00;26.30
68354;DHT22;55274;43.060;25.618;2022-08-03T12:43:58;35.20;25.80
68354;DHT22;55274;43.060;25.618;2022-08-03T12:46:29;35.40;26.00
68354;DHT22;55274;43.060;25.618;2022-08-03T12:49:06;35.30;25.60
68354;DHT22;55274;43.060;25.618;2022-08-03T12:54:07;35.20;25.70
68354;DHT22;55274;43.060;25.618;2022-08-03T12:56:34;34.90;26.00
68354;DHT22;55274;43.060;25.618;2022-08-03T12:59:04;34.50;26.00
68354;DHT22;55274;43.060;25.618;2022-08-03T13:01:45;34.30;26.80
68354;DHT22;55274;43.060;25.618;2022-08-03T13:04:11;34.10;27.70
68354;DHT22;55274;43.060;25.618;2022-08-03T13:06:37;34.10;27.60
68354;DHT22;55274;43.060;25.618;2022-08-03T13:09:05;33.60;27.80
68354;DHT22;55274;43.060;25.618;2022-08-03T13:11:31;33.70;27.60
68354;DHT22;55274;43.060;25.618;2022-08-03T13:13:57;33.80;27.40
68354;DHT22;55274;43.060;25.618;2022-08-03T13:16:24;34.00;27.90
68354;DHT22;55274;43.060;25.618;2022-08-03T13:18:50;34.30;27.70
68354;DHT22;55274;43.060;25.618;2022-08-03T13:21:19;34.30;27.20
68354;DHT22;55274;43.060;25.618;2022-08-03T13:23:45;34.00;27.60
68354;DHT22;55274;43.060;25.618;2022-08-03T13:26:12;33.70;27.90
68354;DHT22;55274;43.060;25.618;2022-08-03T13:28:38;33.50;28.40
68354;DHT22;55274;43.060;25.618;2022-08-03T13:31:05;33.60;28.20
68354;DHT22;55274;43.060;25.618;2022-08-03T13:33:31;33.70;28.10
68354;DHT22;55274;43.060;25.618;2022-08-03T13:35:57;33.70;27.60
68354;DHT22;55274;43.060;25.618;2022-08-03T13:38:23;33.80;27.80
68354;DHT22;55274;43.060;25.618;2022-08-03T13:40:51;34.20;28.00
68354;DHT22;55274;43.060;25.618;2022-08-03T13:43:18;34.10;27.60
68354;DHT22;55274;43.060;25.618;2022-08-03T13:45:44;34.10;27.60
68354;DHT22;55274;43.060;25.618;2022-08-03T13:48:10;34.20;27.50
68354;DHT22;55274;43.060;25.618;2022-08-03T13:50:35;34.20;26.70
68354;DHT22;55274;43.060;25.618;2022-08-03T13:53:01;34.30;26.60
68354;DHT22;55274;43.060;25.618;2022-08-03T13:55:27;34.40;26.70
68354;DHT22;55274;43.060;25.618;2022-08-03T13:57:53;34.40;26.50
68354;DHT22;55274;43.060;25.618;2022-08-03T14:00:19;34.70;26.10
68354;DHT22;55274;43.060;25.618;2022-08-03T14:02:48;34.60;25.70
68354;DHT22;55274;43.060;25.618;2022-08-03T14:05:14;34.70;25.60
68354;DHT22;55274;43.060;25.618;2022-08-03T14:07:40;34.80;25.70
68354;DHT22;55274;43.060;25.618;2022-08-03T14:10:06;34.60;25.80
68354;DHT22;55274;43.060;25.618;2022-08-03T14:12:32;34.60;26.20
68354;DHT22;55274;43.060;25.618;2022-08-03T14:14:58;34.30;26.20
68354;DHT22;55274;43.060;25.618;2022-08-03T14:17:24;34.20;26.60
68354;DHT22;55274;43.060;25.618;2022-08-03T14:19:50;34.20;26.20
68354;DHT22;55274;43.060;25.618;2022-08-03T14:22:15;34.20;26.20
68354;DHT22;55274;43.060;25.618;2022-08-03T14:24:41;33.90;25.90
68354;DHT22;55274;43.060;25.618;2022-08-03T14:27:07;33.70;26.50
68354;DHT22;55274;43.060;25.618;2022-08-03T14:29:33;33.60;26.70
68354;DHT22;55274;43.060;25.618;2022-08-03T14:31:58;33.60;26.30
68354;DHT22;55274;43.060;25.618;2022-08-03T14:34:24;33.70;26.30
68354;DHT22;55274;43.060;25.618;2022-08-03T14:36:50;33.30;27.20
68354;DHT22;55274;43.060;25.618;2022-08-03T14:39:15;33.20;27.40
68354;DHT22;55274;43.060;25.618;2022-08-03T14:41:41;33.30;27.60
68354;DHT22;55274;43.060;25.618;2022-08-03T14:44:07;33.20;26.20
68354;DHT22;55274;43.060;25.618;2022-08-03T14:46:33;33.20;26.10
68354;DHT22;55274;43.060;25.618;2022-08-03T14:48:59;33.10;25.80
68354;DHT22;55274;43.060;25.618;2022-08-03T14:51:24;33.10;26.10
68354;DHT22;55274;43.060;25.618;2022-08-03T14:53:50;33.10;27.70
68354;DHT22;55274;43.060;25.618;2022-08-03T14:56:17;33.10;26.50
68354;DHT22;55274;43.060;25.618;2022-08-03T14:58:43;33.10;26.10
68354;DHT22;55274;43.060;25.618;2022-08-03T15:01:09;33.20;26.10
68354;DHT22;55274;43.060;25.618;2022-08-03T15:03:34;33.20;25.70
68354;DHT22;55274;43.060;25.618;2022-08-03T15:06:00;33.20;25.70
68354;DHT22;55274;43.060;25.618;2022-08-03T15:08:26;33.10;26.00
68354;DHT22;55274;43.060;25.618;2022-08-03T15:10:52;32.90;24.00
68354;DHT22;55274;43.060;25.618;2022-08-03T15:13:19;32.80;23.90
68354;DHT22;55274;43.060;25.618;2022-08-03T15:15:46;32.80;24.30
68354;DHT22;55274;43.060;25.618;2022-08-03T15:18:12;32.80;25.40
68354;DHT22;55274;43.060;25.618;2022-08-03T15:20:38;32.80;25.30
68354;DHT22;55274;43.060;25.618;2022-08-03T15:23:04;32.80;24.80
68354;DHT22;55274;43.060;25.618;2022-08-03T15:25:30;32.80;24.90
68354;DHT22;55274;43.060;25.618;2022-08-03T15:27:55;32.90;24.20
68354;DHT22;55274;43.060;25.618;2022-08-03T15:30:21;32.90;23.80
68354;DHT22;55274;43.060;25.618;2022-08-03T15:32:47;33.00;25.00
68354;DHT22;55274;43.060;25.618;2022-08-03T15:35:13;33.00;25.20
68354;DHT22;55274;43.060;25.618;2022-08-03T15:37:39;32.80;24.70
68354;DHT22;55274;43.060;25.618;2022-08-03T15:40:05;32.80;24.60
68354;DHT22;55274;43.060;25.618;2022-08-03T15:42:32;32.80;25.00
68354;DHT22;55274;43.060;25.618;2022-08-03T15:44:58;32.90;25.10
68354;DHT22;55274;43.060;25.618;2022-08-03T15:47:24;32.80;24.40
68354;DHT22;55274;43.060;25.618;2022-08-03T15:49:49;32.80;25.00
68354;DHT22;55274;43.060;25.618;2022-08-03T15:52:15;32.80;24.40
68354;DHT22;55274;43.060;25.618;2022-08-03T15:54:41;32.80;24.50
68354;DHT22;55274;43.060;25.618;2022-08-03T15:57:07;32.70;24.70
68354;DHT22;55274;43.060;25.618;2022-08-03T15:59:33;32.70;24.20
68354;DHT22;55274;43.060;25.618;2022-08-03T16:01:59;32.60;24.40
68354;DHT22;55274;43.060;25.618;2022-08-03T16:04:25;32.50;24.30
68354;DHT22;55274;43.060;25.618;2022-08-03T16:06:50;32.40;24.80